sensor_id;sensor_type;location;lat;lon;timestamp;P1;durP1;ratioP1;P2;durP2;ratioP2
9160;SDS011;4615;51.340;8.288;2023-03-23T00:02:02;4.45;;;2.60;;
9160;SDS011;4615;51.340;8.288;2023-03-23T00:04:29;3.50;;;2.40;;
9160;SDS011;4615;51.340;8.288;2023-03-23T00:06:56;3.75;;;2.50;;
9160;SDS011;4615;51.340;8.288;2023-03-23T00:09:26;3.97;;;2.40;;
9160;SDS011;4615;51.340;8.288;2023-03-23T00:11:52;3.38;;;2.20;;
9160;SDS011;4615;51.340;8.288;2023-03-23T00:14:22;3.23;;;2.30;;
9160;SDS011;4615;51.340;8.288;2023-03-23T00:16:51;4.13;;;2.53;;
9160;SDS011;4615;51.340;8.288;2023-03-23T00:19:17;3.80;;;2.50;;
9160;SDS011;4615;51.340;8.288;2023-03-23T00:21:45;4.10;;;2.53;;
9160;SDS011;4615;51.340;8.288;2023-03-23T00:24:12;3.22;;;2.30;;
9160;SDS011;4615;51.340;8.288;2023-03-23T00:26:41;2.58;;;2.17;;
9160;SDS011;4615;51.340;8.288;2023-03-23T00:29:11;3.40;;;2.60;;
9160;SDS011;4615;51.340;8.288;2023-03-23T00:31:39;3.63;;;2.67;;
9160;SDS011;4615;51.340;8.288;2023-03-23T00:34:08;3.63;;;2.50;;
9160;SDS011;4615;51.340;8.288;2023-03-23T00:36:37;3.03;;;2.42;;
9160;SDS011;4615;51.340;8.288;2023-03-23T00:39:08;3.25;;;2.50;;
9160;SDS011;4615;51.340;8.288;2023-03-23T00:41:34;3.50;;;2.45;;
9160;SDS011;4615;51.340;8.288;2023-03-23T00:44:01;3.13;;;2.50;;
9160;SDS011;4615;51.340;8.288;2023-03-23T00:46:28;4.22;;;2.70;;
9160;SDS011;4615;51.340;8.288;2023-03-23T00:48:55;3.58;;;2.47;;
9160;SDS011;4615;51.340;8.288;2023-03-23T00:51:23;4.10;;;2.67;;
9160;SDS011;4615;51.340;8.288;2023-03-23T00:53:50;3.47;;;2.53;;
9160;SDS011;4615;51.340;8.288;2023-03-23T00:56:16;3.38;;;2.45;;
9160;SDS011;4615;51.340;8.288;2023-03-23T00:58:43;3.75;;;2.55;;
9160;SDS011;4615;51.340;8.288;2023-03-23T01:01:10;3.47;;;2.80;;
9160;SDS011;4615;51.340;8.288;2023-03-23T01:03:36;3.38;;;2.40;;
9160;SDS011;4615;51.340;8.288;2023-03-23T01:06:04;4.33;;;2.90;;
9160;SDS011;4615;51.340;8.288;2023-03-23T01:08:32;3.33;;;2.78;;
9160;SDS011;4615;51.340;8.288;2023-03-23T01:11:01;4.30;;;2.80;;
9160;SDS011;4615;51.340;8.288;2023-03-23T01:13:28;4.43;;;2.63;;
9160;SDS011;4615;51.340;8.288;2023-03-23T01:15:55;2.78;;;2.45;;
9160;SDS011;4615;51.340;8.288;2023-03-23T01:18:21;4.88;;;2.80;;
9160;SDS011;4615;51.340;8.288;2023-03-23T01:20:48;3.47;;;2.78;;
9160;SDS011;4615;51.340;8.288;2023-03-23T01:23:15;2.60;;;2.40;;
9160;SDS011;4615;51.340;8.288;2023-03-23T01:25:43;4.15;;;2.70;;
9160;SDS011;4615;51.340;8.288;2023-03-23T01:28:10;4.45;;;2.80;;
9160;SDS011;4615;51.340;8.288;2023-03-23T01:30:37;5.90;;;2.90;;
9160;SDS011;4615;51.340;8.288;2023-03-23T01:33:03;3.00;;;2.70;;
9160;SDS011;4615;51.340;8.288;2023-03-23T01:35:30;3.53;;;2.50;;
9160;SDS011;4615;51.340;8.288;2023-03-23T01:37:56;3.50;;;2.50;;
9160;SDS011;4615;51.340;8.288;2023-03-23T01:40:23;4.20;;;2.70;;
9160;SDS011;4615;51.340;8.288;2023-03-23T01:42:54;4.60;;;2.47;;
9160;SDS011;4615;51.340;8.288;2023-03-23T01:45:22;3.55;;;2.70;;
9160;SDS011;4615;51.340;8.288;2023-03-23T01:47:49;3.42;;;2.30;;
9160;SDS011;4615;51.340;8.288;2023-03-23T01:50:18;3.33;;;2.50;;
9160;SDS011;4615;51.340;8.288;2023-03-23T01:52:45;3.30;;;2.33;;
9160;SDS011;4615;51.340;8.288;2023-03-23T01:55:12;3.00;;;2.30;;
9160;SDS011;4615;51.340;8.288;2023-03-23T01:57:39;3.85;;;2.60;;
9160;SDS011;4615;51.340;8.288;2023-03-23T02:00:09;3.42;;;2.40;;
9160;SDS011;4615;51.340;8.288;2023-03-23T02:02:40;3.85;;;2.45;;
9160;SDS011;4615;51.340;8.288;2023-03-23T02:05:08;3.13;;;2.40;;
9160;SDS011;4615;51.340;8.288;2023-03-23T02:07:36;2.53;;;2.20;;
9160;SDS011;4615;51.340;8.288;2023-03-23T02:10:03;3.10;;;2.33;;
9160;SDS011;4615;51.340;8.288;2023-03-23T02:12:30;3.13;;;2.20;;
9160;SDS011;4615;51.340;8.288;2023-03-23T02:14:56;4.15;;;2.65;;
9160;SDS011;4615;51.340;8.288;2023-03-23T02:17:25;3.25;;;2.60;;
9160;SDS011;4615;51.340;8.288;2023-03-23T02:19:57;3.80;;;2.65;;
9160;SDS011;4615;51.340;8.288;2023-03-23T02:25:27;4.20;;;2.60;;
9160;SDS011;4615;51.340;8.288;2023-03-23T02:30:45;3.22;;;2.80;;
9160;SDS011;4615;51.340;8.288;2023-03-23T02:33:28;4.47;;;2.70;;
9160;SDS011;4615;51.340;8.288;2023-03-23T02:35:56;3.30;;;2.65;;
9160;SDS011;4615;51.340;8.288;2023-03-23T02:38:25;3.22;;;2.50;;
9160;SDS011;4615;51.340;8.288;2023-03-23T02:40:54;3.72;;;2.63;;
9160;SDS011;4615;51.340;8.288;2023-03-23T02:43:22;3.10;;;2.80;;
9160;SDS011;4615;51.340;8.288;2023-03-23T02:45:50;3.30;;;2.75;;
9160;SDS011;4615;51.340;8.288;2023-03-23T02:48:19;3.50;;;2.60;;
9160;SDS011;4615;51.340;8.288;2023-03-23T02:50:49;3.20;;;2.90;;
9160;SDS011;4615;51.340;8.288;2023-03-23T02:53:18;3.22;;;2.70;;
9160;SDS011;4615;51.340;8.288;2023-03-23T02:55:45;4.20;;;2.70;;
9160;SDS011;4615;51.340;8.288;2023-03-23T02:58:13;3.75;;;2.72;;
9160;SDS011;4615;51.340;8.288;2023-03-23T03:00:40;4.43;;;3.10;;
9160;SDS011;4615;51.340;8.288;2023-03-23T03:03:08;3.40;;;2.85;;
9160;SDS011;4615;51.340;8.288;2023-03-23T03:05:38;3.10;;;2.80;;
9160;SDS011;4615;51.340;8.288;2023-03-23T03:08:13;3.67;;;2.90;;
9160;SDS011;4615;51.340;8.288;2023-03-23T03:10:44;2.90;;;2.60;;
9160;SDS011;4615;51.340;8.288;2023-03-23T03:13:14;3.65;;;2.90;;
9160;SDS011;4615;51.340;8.288;2023-03-23T03:15:45;3.60;;;2.80;;
9160;SDS011;4615;51.340;8.288;2023-03-23T03:18:16;3.58;;;2.92;;
9160;SDS011;4615;51.340;8.288;2023-03-23T03:20:47;3.83;;;3.00;;
9160;SDS011;4615;51.340;8.288;2023-03-23T03:23:16;3.40;;;2.90;;
9160;SDS011;4615;51.340;8.288;2023-03-23T03:25:43;4.47;;;3.20;;
9160;SDS011;4615;51.340;8.288;2023-03-23T03:28:13;3.67;;;3.20;;
9160;SDS011;4615;51.340;8.288;2023-03-23T03:30:40;3.55;;;3.00;;
9160;SDS011;4615;51.340;8.288;2023-03-23T03:33:09;3.40;;;2.70;;
9160;SDS011;4615;51.340;8.288;2023-03-23T03:35:36;3.05;;;2.63;;
9160;SDS011;4615;51.340;8.288;2023-03-23T03:38:08;3.08;;;2.70;;
9160;SDS011;4615;51.340;8.288;2023-03-23T03:40:36;2.80;;;2.60;;
9160;SDS011;4615;51.340;8.288;2023-03-23T03:43:03;3.08;;;2.78;;
9160;SDS011;4615;51.340;8.288;2023-03-23T03:45:30;3.23;;;2.63;;
9160;SDS011;4615;51.340;8.288;2023-03-23T03:47:57;3.67;;;2.70;;
9160;SDS011;4615;51.340;8.288;2023-03-23T03:50:24;3.20;;;2.60;;
9160;SDS011;4615;51.340;8.288;2023-03-23T03:52:51;2.60;;;2.40;;
9160;SDS011;4615;51.340;8.288;2023-03-23T03:55:18;2.70;;;2.50;;
9160;SDS011;4615;51.340;8.288;2023-03-23T03:57:46;2.90;;;2.60;;
9160;SDS011;4615;51.340;8.288;2023-03-23T04:00:13;2.60;;;2.40;;
9160;SDS011;4615;51.340;8.288;2023-03-23T04:02:41;2.90;;;2.50;;
9160;SDS011;4615;51.340;8.288;2023-03-23T04:05:07;3.25;;;2.50;;
9160;SDS011;4615;51.340;8.288;2023-03-23T04:07:35;2.63;;;2.42;;
9160;SDS011;4615;51.340;8.288;2023-03-23T04:10:05;2.50;;;2.30;;
9160;SDS011;4615;51.340;8.288;2023-03-23T04:12:32;2.55;;;2.33;;
9160;SDS011;4615;51.340;8.288;2023-03-23T04:15:00;2.65;;;2.45;;
9160;SDS011;4615;51.340;8.288;2023-03-23T04:17:26;2.40;;;2.20;;
9160;SDS011;4615;51.340;8.288;2023-03-23T04:19:53;2.42;;;2.22;;
9160;SDS011;4615;51.340;8.288;2023-03-23T04:22:22;3.00;;;2.40;;
9160;SDS011;4615;51.340;8.288;2023-03-23T04:24:49;2.58;;;2.25;;
9160;SDS011;4615;51.340;8.288;2023-03-23T04:27:16;2.88;;;2.40;;
9160;SDS011;4615;51.340;8.288;2023-03-23T04:29:43;3.85;;;2.60;;
9160;SDS011;4615;51.340;8.288;2023-03-23T04:32:15;2.70;;;2.50;;
9160;SDS011;4615;51.340;8.288;2023-03-23T04:34:42;2.50;;;2.30;;
9160;SDS011;4615;51.340;8.288;2023-03-23T04:37:09;2.60;;;2.40;;
9160;SDS011;4615;51.340;8.288;2023-03-23T04:39:35;2.60;;;2.40;;
9160;SDS011;4615;51.340;8.288;2023-03-23T04:42:05;2.72;;;2.30;;
9160;SDS011;4615;51.340;8.288;2023-03-23T04:44:31;3.05;;;2.53;;
9160;SDS011;4615;51.340;8.288;2023-03-23T04:47:00;3.63;;;2.40;;
9160;SDS011;4615;51.340;8.288;2023-03-23T04:49:28;3.30;;;2.70;;
9160;SDS011;4615;51.340;8.288;2023-03-23T04:51:55;2.80;;;2.60;;
9160;SDS011;4615;51.340;8.288;2023-03-23T04:54:21;2.70;;;2.50;;
9160;SDS011;4615;51.340;8.288;2023-03-23T04:56:49;2.70;;;2.50;;
9160;SDS011;4615;51.340;8.288;2023-03-23T04:59:16;2.90;;;2.65;;
9160;SDS011;4615;51.340;8.288;2023-03-23T05:01:42;3.22;;;2.70;;
9160;SDS011;4615;51.340;8.288;2023-03-23T05:04:10;2.97;;;2.78;;
9160;SDS011;4615;51.340;8.288;2023-03-23T05:06:39;2.90;;;2.70;;
9160;SDS011;4615;51.340;8.288;2023-03-23T05:09:10;3.10;;;2.63;;
9160;SDS011;4615;51.340;8.288;2023-03-23T05:11:36;3.70;;;2.70;;
9160;SDS011;4615;51.340;8.288;2023-03-23T05:14:03;2.72;;;2.53;;
9160;SDS011;4615;51.340;8.288;2023-03-23T05:16:29;2.88;;;2.63;;
9160;SDS011;4615;51.340;8.288;2023-03-23T05:18:56;3.28;;;2.90;;
9160;SDS011;4615;51.340;8.288;2023-03-23T05:21:23;3.00;;;2.70;;
9160;SDS011;4615;51.340;8.288;2023-03-23T05:23:52;3.33;;;2.65;;
9160;SDS011;4615;51.340;8.288;2023-03-23T05:26:19;3.35;;;2.67;;
9160;SDS011;4615;51.340;8.288;2023-03-23T05:28:46;3.80;;;2.73;;
9160;SDS011;4615;51.340;8.288;2023-03-23T05:31:13;3.15;;;2.70;;
9160;SDS011;4615;51.340;8.288;2023-03-23T05:33:40;3.05;;;2.60;;
9160;SDS011;4615;51.340;8.288;2023-03-23T05:36:06;2.80;;;2.60;;
9160;SDS011;4615;51.340;8.288;2023-03-23T05:38:35;3.00;;;2.70;;
9160;SDS011;4615;51.340;8.288;2023-03-23T05:41:05;2.90;;;2.70;;
9160;SDS011;4615;51.340;8.288;2023-03-23T05:43:32;2.80;;;2.60;;
9160;SDS011;4615;51.340;8.288;2023-03-23T05:45:59;4.28;;;2.83;;
9160;SDS011;4615;51.340;8.288;2023-03-23T05:48:26;3.00;;;2.77;;
9160;SDS011;4615;51.340;8.288;2023-03-23T05:50:53;3.05;;;2.72;;
9160;SDS011;4615;51.340;8.288;2023-03-23T05:53:20;3.22;;;2.80;;
9160;SDS011;4615;51.340;8.288;2023-03-23T05:55:46;2.97;;;2.67;;
9160;SDS011;4615;51.340;8.288;2023-03-23T05:58:14;2.90;;;2.70;;
9160;SDS011;4615;51.340;8.288;2023-03-23T06:00:41;4.00;;;2.80;;
9160;SDS011;4615;51.340;8.288;2023-03-23T06:03:07;3.45;;;2.90;;
9160;SDS011;4615;51.340;8.288;2023-03-23T06:05:34;2.92;;;2.63;;
9160;SDS011;4615;51.340;8.288;2023-03-23T06:08:01;3.25;;;2.70;;
9160;SDS011;4615;51.340;8.288;2023-03-23T06:10:28;3.80;;;2.75;;
9160;SDS011;4615;51.340;8.288;2023-03-23T06:12:56;3.00;;;2.72;;
9160;SDS011;4615;51.340;8.288;2023-03-23T06:15:23;3.30;;;2.97;;
9160;SDS011;4615;51.340;8.288;2023-03-23T06:17:54;2.97;;;2.70;;
9160;SDS011;4615;51.340;8.288;2023-03-23T06:20:21;2.75;;;2.55;;
9160;SDS011;4615;51.340;8.288;2023-03-23T06:22:49;3.00;;;2.72;;
9160;SDS011;4615;51.340;8.288;2023-03-23T06:25:16;3.00;;;2.70;;
9160;SDS011;4615;51.340;8.288;2023-03-23T06:27:42;3.00;;;2.70;;
9160;SDS011;4615;51.340;8.288;2023-03-23T06:30:11;3.05;;;2.42;;
9160;SDS011;4615;51.340;8.288;2023-03-23T06:32:38;2.75;;;2.53;;
9160;SDS011;4615;51.340;8.288;2023-03-23T06:35:06;3.20;;;2.80;;
9160;SDS011;4615;51.340;8.288;2023-03-23T06:37:34;2.70;;;2.38;;
9160;SDS011;4615;51.340;8.288;2023-03-23T06:40:01;2.95;;;2.60;;
9160;SDS011;4615;51.340;8.288;2023-03-23T06:42:29;3.05;;;2.70;;
9160;SDS011;4615;51.340;8.288;2023-03-23T06:44:56;2.80;;;2.60;;
9160;SDS011;4615;51.340;8.288;2023-03-23T06:47:22;3.10;;;2.80;;
9160;SDS011;4615;51.340;8.288;2023-03-23T06:49:50;2.95;;;2.45;;
9160;SDS011;4615;51.340;8.288;2023-03-23T06:52:17;3.10;;;2.80;;
9160;SDS011;4615;51.340;8.288;2023-03-23T06:54:43;3.13;;;2.60;;
9160;SDS011;4615;51.340;8.288;2023-03-23T06:57:10;2.85;;;2.60;;
9160;SDS011;4615;51.340;8.288;2023-03-23T06:59:37;3.60;;;2.80;;
9160;SDS011;4615;51.340;8.288;2023-03-23T07:02:03;3.22;;;2.70;;
9160;SDS011;4615;51.340;8.288;2023-03-23T07:04:30;2.83;;;2.50;;
9160;SDS011;4615;51.340;8.288;2023-03-23T07:06:59;3.67;;;2.60;;
9160;SDS011;4615;51.340;8.288;2023-03-23T07:09:25;2.60;;;2.40;;
9160;SDS011;4615;51.340;8.288;2023-03-23T07:11:52;2.70;;;2.50;;
9160;SDS011;4615;51.340;8.288;2023-03-23T07:14:19;2.90;;;2.58;;
9160;SDS011;4615;51.340;8.288;2023-03-23T07:16:47;2.53;;;2.33;;
9160;SDS011;4615;51.340;8.288;2023-03-23T07:19:13;2.90;;;2.55;;
9160;SDS011;4615;51.340;8.288;2023-03-23T07:21:40;2.83;;;2.60;;
9160;SDS011;4615;51.340;8.288;2023-03-23T07:24:10;2.70;;;2.50;;
9160;SDS011;4615;51.340;8.288;2023-03-23T07:26:39;3.25;;;2.50;;
9160;SDS011;4615;51.340;8.288;2023-03-23T07:29:05;3.78;;;2.50;;
9160;SDS011;4615;51.340;8.288;2023-03-23T07:31:32;3.03;;;2.60;;
9160;SDS011;4615;51.340;8.288;2023-03-23T07:33:58;3.42;;;2.40;;
9160;SDS011;4615;51.340;8.288;2023-03-23T07:36:26;3.45;;;2.60;;
9160;SDS011;4615;51.340;8.288;2023-03-23T07:38:52;3.08;;;2.35;;
9160;SDS011;4615;51.340;8.288;2023-03-23T07:41:21;2.63;;;2.42;;
9160;SDS011;4615;51.340;8.288;2023-03-23T07:43:48;2.75;;;2.38;;
9160;SDS011;4615;51.340;8.288;2023-03-23T07:46:14;3.30;;;2.53;;
9160;SDS011;4615;51.340;8.288;2023-03-23T07:48:41;3.28;;;2.30;;
9160;SDS011;4615;51.340;8.288;2023-03-23T07:51:07;3.87;;;2.70;;
9160;SDS011;4615;51.340;8.288;2023-03-23T07:53:34;3.45;;;2.50;;
9160;SDS011;4615;51.340;8.288;2023-03-23T07:56:00;3.67;;;2.60;;
9160;SDS011;4615;51.340;8.288;2023-03-23T07:58:29;3.22;;;2.40;;
9160;SDS011;4615;51.340;8.288;2023-03-23T08:00:56;3.05;;;2.25;;
9160;SDS011;4615;51.340;8.288;2023-03-23T08:03:23;3.75;;;2.45;;
9160;SDS011;4615;51.340;8.288;2023-03-23T08:05:49;3.72;;;2.55;;
9160;SDS011;4615;51.340;8.288;2023-03-23T08:08:16;2.90;;;2.20;;
9160;SDS011;4615;51.340;8.288;2023-03-23T08:10:43;4.03;;;2.55;;
9160;SDS011;4615;51.340;8.288;2023-03-23T08:13:10;2.70;;;2.40;;
9160;SDS011;4615;51.340;8.288;2023-03-23T08:15:38;2.53;;;2.10;;
9160;SDS011;4615;51.340;8.288;2023-03-23T08:18:04;4.10;;;2.53;;
9160;SDS011;4615;51.340;8.288;2023-03-23T08:20:31;2.63;;;2.23;;
9160;SDS011;4615;51.340;8.288;2023-03-23T08:22:58;2.90;;;2.20;;
9160;SDS011;4615;51.340;8.288;2023-03-23T08:25:25;2.67;;;2.05;;
9160;SDS011;4615;51.340;8.288;2023-03-23T08:27:52;3.22;;;2.20;;
9160;SDS011;4615;51.340;8.288;2023-03-23T08:30:19;2.30;;;2.10;;
9160;SDS011;4615;51.340;8.288;2023-03-23T08:32:48;3.58;;;2.17;;
9160;SDS011;4615;51.340;8.288;2023-03-23T08:35:16;3.85;;;2.70;;
9160;SDS011;4615;51.340;8.288;2023-03-23T08:37:43;2.45;;;2.03;;
9160;SDS011;4615;51.340;8.288;2023-03-23T08:40:10;3.28;;;2.20;;
9160;SDS011;4615;51.340;8.288;2023-03-23T08:42:37;3.15;;;2.03;;
9160;SDS011;4615;51.340;8.288;2023-03-23T08:45:04;2.47;;;2.10;;
9160;SDS011;4615;51.340;8.288;2023-03-23T08:47:32;3.22;;;2.25;;
9160;SDS011;4615;51.340;8.288;2023-03-23T08:50:00;3.22;;;2.28;;
9160;SDS011;4615;51.340;8.288;2023-03-23T08:52:27;2.78;;;2.33;;
9160;SDS011;4615;51.340;8.288;2023-03-23T08:54:53;3.55;;;2.17;;
9160;SDS011;4615;51.340;8.288;2023-03-23T08:57:20;3.17;;;2.30;;
9160;SDS011;4615;51.340;8.288;2023-03-23T08:59:47;3.97;;;2.20;;
9160;SDS011;4615;51.340;8.288;2023-03-23T09:02:14;3.22;;;2.10;;
9160;SDS011;4615;51.340;8.288;2023-03-23T09:04:41;2.40;;;1.98;;
9160;SDS011;4615;51.340;8.288;2023-03-23T09:07:10;2.95;;;2.25;;
9160;SDS011;4615;51.340;8.288;2023-03-23T09:09:37;3.10;;;1.98;;
9160;SDS011;4615;51.340;8.288;2023-03-23T09:12:05;3.80;;;2.22;;
9160;SDS011;4615;51.340;8.288;2023-03-23T09:14:32;3.00;;;2.00;;
9160;SDS011;4615;51.340;8.288;2023-03-23T09:16:58;2.70;;;2.10;;
9160;SDS011;4615;51.340;8.288;2023-03-23T09:19:25;2.50;;;2.00;;
9160;SDS011;4615;51.340;8.288;2023-03-23T09:21:52;3.25;;;2.13;;
9160;SDS011;4615;51.340;8.288;2023-03-23T09:24:20;2.60;;;2.05;;
9160;SDS011;4615;51.340;8.288;2023-03-23T09:26:47;2.42;;;1.92;;
9160;SDS011;4615;51.340;8.288;2023-03-23T09:29:13;2.73;;;1.97;;
9160;SDS011;4615;51.340;8.288;2023-03-23T09:31:40;2.17;;;1.90;;
9160;SDS011;4615;51.340;8.288;2023-03-23T09:34:07;2.88;;;2.05;;
9160;SDS011;4615;51.340;8.288;2023-03-23T09:36:35;2.45;;;1.90;;
9160;SDS011;4615;51.340;8.288;2023-03-23T09:39:01;3.40;;;2.10;;
9160;SDS011;4615;51.340;8.288;2023-03-23T09:41:37;2.87;;;1.90;;
9160;SDS011;4615;51.340;8.288;2023-03-23T09:44:10;2.42;;;1.70;;
9160;SDS011;4615;51.340;8.288;2023-03-23T09:46:44;2.03;;;1.83;;
9160;SDS011;4615;51.340;8.288;2023-03-23T09:49:15;2.85;;;1.90;;
9160;SDS011;4615;51.340;8.288;2023-03-23T09:51:44;2.53;;;1.77;;
9160;SDS011;4615;51.340;8.288;2023-03-23T09:54:12;3.30;;;2.00;;
9160;SDS011;4615;51.340;8.288;2023-03-23T09:56:42;3.63;;;1.88;;
9160;SDS011;4615;51.340;8.288;2023-03-23T09:59:12;3.65;;;2.20;;
9160;SDS011;4615;51.340;8.288;2023-03-23T10:01:41;2.83;;;2.03;;
9160;SDS011;4615;51.340;8.288;2023-03-23T10:04:12;2.85;;;2.10;;
9160;SDS011;4615;51.340;8.288;2023-03-23T10:06:39;4.80;;;1.95;;
9160;SDS011;4615;51.340;8.288;2023-03-23T10:09:05;3.28;;;2.03;;
9160;SDS011;4615;51.340;8.288;2023-03-23T10:11:36;3.20;;;2.10;;
9160;SDS011;4615;51.340;8.288;2023-03-23T10:14:09;4.88;;;2.20;;
9160;SDS011;4615;51.340;8.288;2023-03-23T10:16:40;3.83;;;2.25;;
9160;SDS011;4615;51.340;8.288;2023-03-23T10:19:10;4.38;;;2.20;;
9160;SDS011;4615;51.340;8.288;2023-03-23T10:21:40;3.40;;;2.00;;
9160;SDS011;4615;51.340;8.288;2023-03-23T10:24:08;3.25;;;2.10;;
9160;SDS011;4615;51.340;8.288;2023-03-23T10:26:37;3.92;;;2.42;;
9160;SDS011;4615;51.340;8.288;2023-03-23T10:29:11;4.38;;;2.20;;
9160;SDS011;4615;51.340;8.288;2023-03-23T10:31:40;3.65;;;2.17;;
9160;SDS011;4615;51.340;8.288;2023-03-23T10:34:10;4.30;;;2.10;;
9160;SDS011;4615;51.340;8.288;2023-03-23T10:36:38;3.35;;;2.10;;
9160;SDS011;4615;51.340;8.288;2023-03-23T10:39:09;4.33;;;2.43;;
9160;SDS011;4615;51.340;8.288;2023-03-23T10:41:37;3.70;;;2.20;;
9160;SDS011;4615;51.340;8.288;2023-03-23T10:44:08;4.07;;;2.27;;
9160;SDS011;4615;51.340;8.288;2023-03-23T10:46:38;3.72;;;2.20;;
9160;SDS011;4615;51.340;8.288;2023-03-23T10:49:08;3.92;;;2.35;;
9160;SDS011;4615;51.340;8.288;2023-03-23T10:51:36;3.28;;;2.35;;
9160;SDS011;4615;51.340;8.288;2023-03-23T10:54:03;3.90;;;2.40;;
9160;SDS011;4615;51.340;8.288;2023-03-23T10:56:34;3.65;;;2.20;;
9160;SDS011;4615;51.340;8.288;2023-03-23T10:59:10;4.38;;;2.70;;
9160;SDS011;4615;51.340;8.288;2023-03-23T11:01:41;4.68;;;2.50;;
9160;SDS011;4615;51.340;8.288;2023-03-23T11:04:10;3.67;;;2.17;;
9160;SDS011;4615;51.340;8.288;2023-03-23T11:06:38;3.88;;;2.30;;
9160;SDS011;4615;51.340;8.288;2023-03-23T11:09:10;4.68;;;2.45;;
9160;SDS011;4615;51.340;8.288;2023-03-23T11:11:38;3.65;;;2.20;;
9160;SDS011;4615;51.340;8.288;2023-03-23T11:14:14;3.97;;;2.30;;
9160;SDS011;4615;51.340;8.288;2023-03-23T11:16:44;5.45;;;2.40;;
9160;SDS011;4615;51.340;8.288;2023-03-23T11:19:11;4.65;;;2.42;;
9160;SDS011;4615;51.340;8.288;2023-03-23T11:21:38;3.92;;;2.28;;
9160;SDS011;4615;51.340;8.288;2023-03-23T11:24:07;3.73;;;2.10;;
9160;SDS011;4615;51.340;8.288;2023-03-23T11:26:34;3.55;;;2.33;;
9160;SDS011;4615;51.340;8.288;2023-03-23T11:29:03;3.40;;;2.30;;
9160;SDS011;4615;51.340;8.288;2023-03-23T11:31:32;4.53;;;2.30;;
9160;SDS011;4615;51.340;8.288;2023-03-23T11:34:01;3.40;;;2.08;;
9160;SDS011;4615;51.340;8.288;2023-03-23T11:36:30;3.72;;;2.22;;
9160;SDS011;4615;51.340;8.288;2023-03-23T11:38:57;3.35;;;1.83;;
9160;SDS011;4615;51.340;8.288;2023-03-23T11:41:24;3.50;;;1.88;;
9160;SDS011;4615;51.340;8.288;2023-03-23T11:43:51;4.03;;;1.80;;
9160;SDS011;4615;51.340;8.288;2023-03-23T11:46:22;2.58;;;1.65;;
9160;SDS011;4615;51.340;8.288;2023-03-23T11:48:53;4.57;;;1.77;;
9160;SDS011;4615;51.340;8.288;2023-03-23T11:51:26;3.33;;;1.80;;
9160;SDS011;4615;51.340;8.288;2023-03-23T11:53:56;3.13;;;1.80;;
9160;SDS011;4615;51.340;8.288;2023-03-23T11:56:24;2.55;;;1.70;;
9160;SDS011;4615;51.340;8.288;2023-03-23T11:58:52;2.88;;;1.67;;
9160;SDS011;4615;51.340;8.288;2023-03-23T12:01:26;3.00;;;1.70;;
9160;SDS011;4615;51.340;8.288;2023-03-23T12:04:00;2.00;;;1.80;;
9160;SDS011;4615;51.340;8.288;2023-03-23T12:06:32;2.83;;;1.70;;
9160;SDS011;4615;51.340;8.288;2023-03-23T12:09:04;2.97;;;1.60;;
9160;SDS011;4615;51.340;8.288;2023-03-23T12:11:35;2.80;;;1.70;;
9160;SDS011;4615;51.340;8.288;2023-03-23T12:14:08;2.50;;;1.83;;
9160;SDS011;4615;51.340;8.288;2023-03-23T12:16:44;2.00;;;1.60;;
9160;SDS011;4615;51.340;8.288;2023-03-23T12:19:14;2.53;;;1.60;;
9160;SDS011;4615;51.340;8.288;2023-03-23T12:21:46;2.80;;;1.80;;
9160;SDS011;4615;51.340;8.288;2023-03-23T12:24:18;2.78;;;1.80;;
9160;SDS011;4615;51.340;8.288;2023-03-23T12:26:50;3.22;;;1.70;;
9160;SDS011;4615;51.340;8.288;2023-03-23T12:29:25;1.87;;;1.53;;
9160;SDS011;4615;51.340;8.288;2023-03-23T12:31:56;3.25;;;1.80;;
9160;SDS011;4615;51.340;8.288;2023-03-23T12:34:28;2.50;;;1.60;;
9160;SDS011;4615;51.340;8.288;2023-03-23T12:37:04;1.70;;;1.40;;
9160;SDS011;4615;51.340;8.288;2023-03-23T12:42:16;2.75;;;1.70;;
9160;SDS011;4615;51.340;8.288;2023-03-23T12:44:47;2.40;;;1.73;;
9160;SDS011;4615;51.340;8.288;2023-03-23T12:47:21;2.10;;;1.60;;
9160;SDS011;4615;51.340;8.288;2023-03-23T12:49:51;3.13;;;1.60;;
9160;SDS011;4615;51.340;8.288;2023-03-23T12:52:23;2.00;;;1.50;;
9160;SDS011;4615;51.340;8.288;2023-03-23T12:54:51;1.73;;;1.52;;
9160;SDS011;4615;51.340;8.288;2023-03-23T12:57:20;2.50;;;1.58;;
9160;SDS011;4615;51.340;8.288;2023-03-23T12:59:53;1.80;;;1.50;;
9160;SDS011;4615;51.340;8.288;2023-03-23T13:02:21;2.47;;;1.67;;
9160;SDS011;4615;51.340;8.288;2023-03-23T13:04:50;1.80;;;1.40;;
9160;SDS011;4615;51.340;8.288;2023-03-23T13:07:18;1.80;;;1.50;;
9160;SDS011;4615;51.340;8.288;2023-03-23T13:09:49;1.95;;;1.38;;
9160;SDS011;4615;51.340;8.288;2023-03-23T13:12:16;2.10;;;1.55;;
9160;SDS011;4615;51.340;8.288;2023-03-23T13:14:45;2.33;;;1.50;;
9160;SDS011;4615;51.340;8.288;2023-03-23T13:17:19;2.10;;;1.52;;
9160;SDS011;4615;51.340;8.288;2023-03-23T13:19:53;1.50;;;1.40;;
9160;SDS011;4615;51.340;8.288;2023-03-23T13:22:25;1.67;;;1.58;;
9160;SDS011;4615;51.340;8.288;2023-03-23T13:24:55;2.13;;;1.50;;
9160;SDS011;4615;51.340;8.288;2023-03-23T13:27:23;1.75;;;1.40;;
9160;SDS011;4615;51.340;8.288;2023-03-23T13:29:50;2.25;;;1.67;;
9160;SDS011;4615;51.340;8.288;2023-03-23T13:32:17;1.80;;;1.60;;
9160;SDS011;4615;51.340;8.288;2023-03-23T13:34:45;2.15;;;1.90;;
9160;SDS011;4615;51.340;8.288;2023-03-23T13:37:19;1.75;;;1.50;;
9160;SDS011;4615;51.340;8.288;2023-03-23T13:39:50;2.28;;;1.52;;
9160;SDS011;4615;51.340;8.288;2023-03-23T13:42:20;2.97;;;1.70;;
9160;SDS011;4615;51.340;8.288;2023-03-23T13:45:05;1.73;;;1.60;;
9160;SDS011;4615;51.340;8.288;2023-03-23T13:47:35;2.60;;;1.60;;
9160;SDS011;4615;51.340;8.288;2023-03-23T13:50:03;1.55;;;1.40;;
9160;SDS011;4615;51.340;8.288;2023-03-23T13:52:37;1.90;;;1.55;;
9160;SDS011;4615;51.340;8.288;2023-03-23T13:55:18;1.60;;;1.50;;
9160;SDS011;4615;51.340;8.288;2023-03-23T13:57:50;2.20;;;1.60;;
9160;SDS011;4615;51.340;8.288;2023-03-23T14:00:26;2.23;;;1.70;;
9160;SDS011;4615;51.340;8.288;2023-03-23T14:02:58;2.80;;;1.52;;
9160;SDS011;4615;51.340;8.288;2023-03-23T14:05:30;2.60;;;1.50;;
9160;SDS011;4615;51.340;8.288;2023-03-23T14:07:57;2.08;;;1.50;;
9160;SDS011;4615;51.340;8.288;2023-03-23T14:10:25;2.25;;;1.60;;
9160;SDS011;4615;51.340;8.288;2023-03-23T14:12:53;1.95;;;1.50;;
9160;SDS011;4615;51.340;8.288;2023-03-23T14:15:20;2.27;;;1.70;;
9160;SDS011;4615;51.340;8.288;2023-03-23T14:17:47;1.63;;;1.50;;
9160;SDS011;4615;51.340;8.288;2023-03-23T14:20:19;2.80;;;1.73;;
9160;SDS011;4615;51.340;8.288;2023-03-23T14:22:47;2.67;;;1.70;;
9160;SDS011;4615;51.340;8.288;2023-03-23T14:25:19;2.72;;;1.60;;
9160;SDS011;4615;51.340;8.288;2023-03-23T14:27:46;2.38;;;1.60;;
9160;SDS011;4615;51.340;8.288;2023-03-23T14:30:15;3.33;;;1.70;;
9160;SDS011;4615;51.340;8.288;2023-03-23T14:32:42;3.55;;;1.73;;
9160;SDS011;4615;51.340;8.288;2023-03-23T14:35:12;3.28;;;1.60;;
9160;SDS011;4615;51.340;8.288;2023-03-23T14:37:41;3.45;;;2.03;;
9160;SDS011;4615;51.340;8.288;2023-03-23T14:40:08;2.92;;;1.60;;
9160;SDS011;4615;51.340;8.288;2023-03-23T14:42:38;2.53;;;1.70;;
9160;SDS011;4615;51.340;8.288;2023-03-23T14:45:05;2.42;;;1.80;;
9160;SDS011;4615;51.340;8.288;2023-03-23T14:47:34;2.72;;;1.70;;
9160;SDS011;4615;51.340;8.288;2023-03-23T14:50:02;2.70;;;1.80;;
9160;SDS011;4615;51.340;8.288;2023-03-23T14:52:32;3.80;;;1.70;;
9160;SDS011;4615;51.340;8.288;2023-03-23T14:55:10;2.58;;;1.65;;
9160;SDS011;4615;51.340;8.288;2023-03-23T14:57:39;3.17;;;1.70;;
9160;SDS011;4615;51.340;8.288;2023-03-23T15:00:10;2.83;;;1.75;;
9160;SDS011;4615;51.340;8.288;2023-03-23T15:02:39;2.88;;;1.80;;
9160;SDS011;4615;51.340;8.288;2023-03-23T15:05:09;2.53;;;1.83;;
9160;SDS011;4615;51.340;8.288;2023-03-23T15:07:38;2.93;;;2.00;;
9160;SDS011;4615;51.340;8.288;2023-03-23T15:10:05;4.38;;;2.20;;
9160;SDS011;4615;51.340;8.288;2023-03-23T15:12:32;2.90;;;2.00;;
9160;SDS011;4615;51.340;8.288;2023-03-23T15:14:59;2.60;;;1.67;;
9160;SDS011;4615;51.340;8.288;2023-03-23T15:17:27;2.70;;;1.70;;
9160;SDS011;4615;51.340;8.288;2023-03-23T15:19:56;3.13;;;1.90;;
9160;SDS011;4615;51.340;8.288;2023-03-23T15:22:25;2.80;;;1.83;;
9160;SDS011;4615;51.340;8.288;2023-03-23T15:25:01;2.90;;;1.92;;
9160;SDS011;4615;51.340;8.288;2023-03-23T15:27:28;3.03;;;1.95;;
9160;SDS011;4615;51.340;8.288;2023-03-23T15:29:56;4.67;;;3.33;;
9160;SDS011;4615;51.340;8.288;2023-03-23T15:32:24;3.03;;;2.30;;